Time;durP1;ratioP1;P1;durP2;ratioP2;P2;SDS_P1;SDS_P2;PMS_P1;PMS_P2;Temp;Humidity;BMP_temperature;BMP_pressure;BME280_temperature;BME280_humidity;BME280_pressure;Samples;Min_cycle;Max_cycle;Signal;HPM_P1;HPM_P2
2023/08/30 00:04:07;;;;;;;4.50;2.33;;;;;;;12.28;100.00;97246.41;18286583;32;20064;-59
2023/08/30 00:14:10;;;;;;;5.70;2.35;;;;;;;12.32;100.00;97243.91;18286536;32;20054;-59
2023/08/30 00:24:12;;;;;;;4.60;2.35;;;;;;;12.37;100.00;97254.69;18299236;32;20091;-59
2023/08/30 00:34:15;;;;;;;3.10;2.40;;;;;;;12.38;100.00;97243.53;18298643;32;20082;-59
2023/08/30 00:44:17;;;;;;;10.10;2.85;;;;;;;12.39;100.00;97241.66;18298024;32;20050;-59
2023/08/30 00:54:21;;;;;;;3.08;1.90;;;;;;;12.41;100.00;97238.66;18297913;32;20050;-59
2023/08/30 01:04:23;;;;;;;3.75;2.45;;;;;;;12.37;100.00;97239.25;18297351;32;20110;-58
2023/08/30 01:14:34;;;;;;;3.53;2.12;;;;;;;12.42;100.00;97237.56;18296921;32;20513;-59
2023/08/30 01:25:12;;;;;;;2.78;2.30;;;;;;;12.43;100.00;97229.13;18282819;32;20504;-59
2023/08/30 01:35:17;;;;;;;7.07;2.22;;;;;;;12.47;100.00;97223.91;18254233;32;20108;-59
2023/08/30 01:45:22;;;;;;;3.65;2.80;;;;;;;12.50;100.00;97218.72;18295558;32;20101;-59
2023/08/30 01:55:25;;;;;;;;;;;;;;;12.49;100.00;97202.75;18294799;32;20058;-59
2023/08/30 02:05:27;;;;;;;2.90;2.60;;;;;;;12.50;100.00;97205.16;18295388;32;19950;-59
2023/08/30 02:15:31;;;;;;;2.20;2.00;;;;;;;12.43;100.00;97206.63;18294324;32;20421;-59
2023/08/30 02:25:34;;;;;;;5.93;2.50;;;;;;;12.32;100.00;97195.09;18293991;32;20476;-59
2023/08/30 02:35:36;;;;;;;4.82;2.15;;;;;;;12.34;100.00;97191.00;18279328;32;20066;-59
2023/08/30 02:45:39;;;;;;;3.08;2.35;;;;;;;12.33;100.00;97184.00;18292959;32;20065;-59
2023/08/30 02:55:41;;;;;;;4.22;2.37;;;;;;;12.30;100.00;97175.63;18292696;32;20366;-59
2023/08/30 03:05:44;;;;;;;3.17;2.37;;;;;;;12.30;100.00;97168.28;18297120;32;20054;-59
2023/08/30 03:15:46;;;;;;;5.10;2.53;;;;;;;12.30;100.00;97179.13;18302870;32;20113;-59
2023/08/30 03:25:48;;;;;;;2.40;2.20;;;;;;;12.27;100.00;97170.81;18302317;32;20088;-59
2023/08/30 03:35:50;;;;;;;3.67;2.20;;;;;;;12.25;100.00;97162.16;18287799;32;20049;-59
2023/08/30 03:45:53;;;;;;;3.42;2.35;;;;;;;12.24;100.00;97161.34;18301466;32;20053;-59
2023/08/30 03:55:55;;;;;;;2.25;2.05;;;;;;;12.18;100.00;97167.94;18300783;32;20355;-58
2023/08/30 04:05:58;;;;;;;3.72;2.22;;;;;;;12.12;100.00;97174.53;18274017;32;20054;-59
2023/08/30 04:16:00;;;;;;;4.07;2.10;;;;;;;12.03;100.00;97168.94;18285413;32;20058;-59
2023/08/30 04:26:02;;;;;;;2.70;2.28;;;;;;;12.03;100.00;97172.47;18299531;32;20102;-59
2023/08/30 04:36:05;;;;;;;2.22;1.95;;;;;;;11.98;100.00;97180.66;18298711;32;20054;-59
2023/08/30 04:46:07;;;;;;;3.05;2.22;;;;;;;11.95;100.00;97191.28;18284477;32;20082;-59
2023/08/30 04:56:14;;;;;;;2.62;2.30;;;;;;;11.90;100.00;97175.06;18284494;32;20097;-58
2023/08/30 05:06:16;;;;;;;2.95;2.28;;;;;;;11.87;100.00;97168.31;18284121;32;20536;-59
2023/08/30 05:16:19;;;;;;;3.97;2.37;;;;;;;11.90;100.00;97186.69;18296898;32;20050;-59
2023/08/30 05:26:21;;;;;;;3.05;2.30;;;;;;;11.95;100.00;97188.56;18282589;32;20076;-59
2023/08/30 05:36:23;;;;;;;2.33;2.05;;;;;;;12.04;100.00;97181.41;18282184;32;20094;-59
2023/08/30 05:46:26;;;;;;;2.03;1.83;;;;;;;12.18;100.00;97189.63;18281721;32;20046;-59
2023/08/30 05:56:29;;;;;;;2.80;2.22;;;;;;;12.27;100.00;97192.50;18295348;32;20126;-59
2023/08/30 06:06:31;;;;;;;3.08;2.47;;;;;;;12.40;100.00;97199.06;18268255;32;20078;-57
2023/08/30 06:16:34;;;;;;;3.08;2.78;;;;;;;12.66;100.00;97197.59;18280422;32;20109;-57
2023/08/30 06:26:36;;;;;;;2.53;2.33;;;;;;;12.78;100.00;97191.72;18280235;32;20053;-57
2023/08/30 06:36:40;;;;;;;4.22;2.60;;;;;;;13.01;100.00;97197.31;18293936;32;20090;-57
2023/08/30 06:46:43;;;;;;;;;;;;;;;13.25;100.00;97196.34;18304553;32;20105;-57
2023/08/30 06:57:06;;;;;;;3.83;3.35;;;;;;;13.54;100.00;97188.78;18303997;32;19945;-57
2023/08/30 07:07:12;;;;;;;3.53;3.17;;;;;;;13.81;100.00;97186.38;18289615;32;20414;-57
2023/08/30 07:17:16;;;;;;;4.95;4.45;;;;;;;13.95;100.00;97197.22;18302732;32;20124;-57
2023/08/30 07:27:20;;;;;;;3.78;3.47;;;;;;;14.10;100.00;97193.38;18288667;32;20073;-57
2023/08/30 07:37:23;;;;;;;4.30;3.55;;;;;;;14.29;100.00;97196.75;18301361;32;20072;-57
2023/08/30 07:47:25;;;;;;;4.10;3.53;;;;;;;14.58;100.00;97199.09;18301395;32;20058;-57
2023/08/30 07:57:28;;;;;;;3.30;3.00;;;;;;;14.84;100.00;97193.09;18300396;32;20505;-57
2023/08/30 08:07:31;;;;;;;4.40;3.60;;;;;;;15.06;100.00;97199.62;18300090;32;20061;-57
2023/08/30 08:17:33;;;;;;;2.65;2.45;;;;;;;15.22;100.00;97194.59;18300111;32;20062;-57
2023/08/30 08:27:37;;;;;;;4.12;3.25;;;;;;;15.36;100.00;97202.69;18299427;32;20050;-57
2023/08/30 08:37:39;;;;;;;3.45;3.15;;;;;;;15.65;100.00;97198.63;18298640;32;20049;-57
2023/08/30 08:47:43;;;;;;;3.08;2.78;;;;;;;16.00;100.00;97191.41;18284597;32;20102;-58
2023/08/30 08:57:48;;;;;;;3.40;2.90;;;;;;;16.49;100.00;97204.19;18297961;32;20058;-57
2023/08/30 09:07:53;;;;;;;3.40;2.35;;;;;;;16.69;100.00;97200.81;18297187;32;20050;-57
2023/08/30 09:17:56;;;;;;;3.35;2.87;;;;;;;17.01;100.00;97204.19;18297291;32;20058;-57
2023/08/30 09:27:59;;;;;;;3.08;2.30;;;;;;;17.35;100.00;97204.41;18282414;32;20084;-58
2023/08/30 09:38:02;;;;;;;2.50;2.20;;;;;;;17.62;100.00;97203.22;18282077;32;20490;-57
2023/08/30 09:48:05;;;;;;;2.58;1.83;;;;;;;17.90;100.00;97211.00;18269495;32;20097;-57
2023/08/30 09:58:09;;;;;;;2.10;1.90;;;;;;;18.25;100.00;97187.00;18294957;32;20093;-57
2023/08/30 10:08:15;;;;;;;1.65;1.45;;;;;;;18.69;100.00;97194.91;18294983;32;20188;-57
2023/08/30 10:18:22;;;;;;;1.70;1.50;;;;;;;18.71;100.00;97194.56;18293457;32;20417;-57
2023/08/30 10:28:26;;;;;;;2.08;1.62;;;;;;;18.72;100.00;97191.47;18294001;32;20110;-57
2023/08/30 10:38:33;;;;;;;2.05;1.58;;;;;;;18.76;100.00;97172.41;18293662;32;20042;-57
2023/08/30 10:48:37;;;;;;;2.25;1.60;;;;;;;18.81;100.00;97180.44;18279699;32;20446;-58
2023/08/30 10:58:46;;;;;;;2.33;1.77;;;;;;;18.80;100.00;97165.94;18266986;32;20050;-58
2023/08/30 11:08:49;;;;;;;1.77;1.42;;;;;;;18.81;100.00;97169.47;18292933;32;20061;-57
2023/08/30 11:18:53;;;;;;;1.73;1.58;;;;;;;18.95;100.00;97166.47;18278530;32;20045;-57
2023/08/30 11:28:56;;;;;;;2.45;1.60;;;;;;;18.84;100.00;97155.09;18272541;32;20110;-57
2023/08/30 11:38:59;;;;;;;3.78;1.90;;;;;;;19.08;100.00;97143.47;18288359;32;20062;-58
2023/08/30 11:49:03;;;;;;;1.93;1.47;;;;;;;19.75;100.00;97150.75;18301249;32;20076;-58
2023/08/30 11:59:06;;;;;;;3.47;1.83;;;;;;;20.01;100.00;97144.09;18274364;32;20050;-57
2023/08/30 12:09:13;;;;;;;1.48;1.37;;;;;;;20.19;100.00;97131.75;18286826;32;20099;-57
2023/08/30 12:19:17;;;;;;;1.37;1.23;;;;;;;20.83;100.00;97129.28;18299782;32;20094;-57
2023/08/30 12:29:20;;;;;;;1.83;1.37;;;;;;;21.23;100.00;97122.84;18299514;32;20114;-58
2023/08/30 12:39:24;;;;;;;2.80;1.05;;;;;;;21.46;100.00;97122.22;18298017;32;20054;-57
2023/08/30 12:49:27;;;;;;;2.12;1.20;;;;;;;21.57;100.00;97117.84;18298405;32;20094;-58
2023/08/30 12:59:30;;;;;;;2.37;1.33;;;;;;;22.02;100.00;97123.16;18284278;32;20065;-58
2023/08/30 13:09:34;;;;;;;1.42;1.12;;;;;;;21.88;100.00;97118.94;18297902;32;20084;-58
2023/08/30 13:19:37;;;;;;;2.65;1.00;;;;;;;21.79;100.00;97118.34;18296856;32;20065;-58
2023/08/30 13:29:41;;;;;;;2.17;1.10;;;;;;;22.01;92.15;97116.88;18296491;32;20377;-58
2023/08/30 13:39:45;;;;;;;1.87;1.20;;;;;;;22.42;100.00;97113.81;18295654;32;20392;-58
2023/08/30 13:49:49;;;;;;;1.35;1.10;;;;;;;23.04;100.00;97110.28;18294236;32;20445;-58
2023/08/30 13:59:52;;;;;;;2.30;1.20;;;;;;;23.44;100.00;97118.13;18294856;32;20121;-57
2023/08/30 14:09:56;;;;;;;2.58;1.10;;;;;;;23.47;94.27;97127.63;18295229;32;20129;-58
2023/08/30 14:19:59;;;;;;;2.33;1.30;;;;;;;23.45;85.41;97116.19;18281478;32;20054;-57
2023/08/30 14:30:03;;;;;;;1.75;1.10;;;;;;;22.81;82.69;97106.34;18293674;32;20103;-57
2023/08/30 14:40:07;;;;;;;2.58;1.10;;;;;;;22.52;95.51;97105.00;18293155;32;20110;-57
2023/08/30 14:50:11;;;;;;;2.20;1.08;;;;;;;22.53;95.62;97108.53;18293219;32;20058;-58
2023/08/30 15:00:14;;;;;;;1.42;1.17;;;;;;;21.89;81.86;97109.53;18281600;32;20105;-58
2023/08/30 15:10:19;;;;;;;1.85;1.10;;;;;;;22.08;100.00;97121.75;18303249;32;20382;-58
2023/08/30 15:20:22;;;;;;;1.33;0.98;;;;;;;21.85;90.76;97116.91;18302330;32;20126;-58
2023/08/30 15:30:26;;;;;;;3.15;1.15;;;;;;;21.41;98.23;97122.50;18302433;32;20438;-58
2023/08/30 15:40:31;;;;;;;3.00;1.35;;;;;;;21.16;100.00;97122.69;18301368;32;20054;-58
2023/08/30 15:50:34;;;;;;;1.73;1.30;;;;;;;20.89;100.00;97113.31;18301395;32;20160;-57
2023/08/30 16:00:40;;;;;;;1.67;1.17;;;;;;;20.65;99.14;97120.50;18300765;32;20068;-57
2023/08/30 16:10:43;;;;;;;2.60;1.30;;;;;;;20.39;100.00;97123.69;18299481;32;20062;-58
2023/08/30 16:20:50;;;;;;;5.37;1.17;;;;;;;20.24;100.00;97111.47;18299758;32;20054;-58
2023/08/30 16:31:14;;;;;;;2.78;1.37;;;;;;;20.06;100.00;97108.19;18299843;32;20080;-58
2023/08/30 16:41:18;;;;;;;3.67;1.60;;;;;;;19.69;100.00;97106.25;18285332;32;20083;-58
2023/08/30 16:51:21;;;;;;;1.85;1.30;;;;;;;19.35;100.00;97099.31;18284546;32;20058;-58
2023/08/30 17:01:24;;;;;;;3.50;1.20;;;;;;;19.05;100.00;97108.53;18297691;32;20054;-58
2023/08/30 17:11:27;;;;;;;2.13;1.20;;;;;;;18.80;100.00;97107.63;18283807;32;20050;-58
2023/08/30 17:21:29;;;;;;;3.27;1.10;;;;;;;18.44;100.00;97106.34;18296863;32;20138;-58
2023/08/30 17:31:33;;;;;;;3.67;1.20;;;;;;;18.07;100.00;97106.16;18282800;32;20114;-57
2023/08/30 17:41:36;;;;;;;4.12;1.58;;;;;;;17.69;100.00;97109.75;18295578;32;20042;-58
2023/08/30 17:51:39;;;;;;;5.20;1.20;;;;;;;17.33;100.00;97121.97;18269615;32;20066;-58
2023/08/30 18:01:42;;;;;;;6.47;1.20;;;;;;;16.99;100.00;97134.63;18281553;32;20042;-58
2023/08/30 18:11:45;;;;;;;10.40;1.62;;;;;;;16.68;100.00;97138.34;18280982;32;20054;-58
2023/08/30 18:21:48;;;;;;;2.43;1.33;;;;;;;16.51;100.00;97145.44;18294340;32;20373;-58
2023/08/30 18:31:51;;;;;;;4.18;1.23;;;;;;;16.30;100.00;97156.16;18294009;32;20102;-57
2023/08/30 18:41:54;;;;;;;3.35;2.00;;;;;;;16.12;100.00;97174.44;18304128;32;20109;-58
2023/08/30 18:51:59;;;;;;;2.27;1.80;;;;;;;15.96;100.00;97179.53;18304253;32;20113;-57
2023/08/30 19:02:02;;;;;;;2.75;1.52;;;;;;;15.85;100.00;97181.75;18303609;32;20042;-58
2023/08/30 19:12:05;;;;;;;1.67;1.30;;;;;;;15.76;100.00;97198.06;18289952;32;20069;-57
2023/08/30 19:22:08;;;;;;;5.10;1.55;;;;;;;15.70;100.00;97201.22;18289645;32;20054;-58
2023/08/30 19:32:12;;;;;;;2.43;1.67;;;;;;;15.59;100.00;97211.59;18276552;32;20053;-57
2023/08/30 19:42:14;;;;;;;4.32;2.00;;;;;;;15.56;100.00;97215.75;18237227;32;20054;-58
2023/08/30 19:52:17;;;;;;;5.57;1.80;;;;;;;15.54;100.00;97217.19;18238191;32;20089;-57
2023/08/30 20:02:20;;;;;;;3.92;2.53;;;;;;;15.32;100.00;97229.75;18236549;32;20136;-58
2023/08/30 20:12:23;;;;;;;5.25;2.50;;;;;;;15.16;100.00;97232.06;18223815;32;20378;-58
2023/08/30 20:22:25;;;;;;;7.33;2.37;;;;;;;15.02;100.00;97232.13;18236898;32;20417;-58
2023/08/30 20:32:28;;;;;;;4.70;1.90;;;;;;;14.98;100.00;97233.03;18236828;32;20057;-58
2023/08/30 20:42:30;;;;;;;3.37;1.92;;;;;;;14.95;100.00;97222.78;18234919;32;20062;-58
2023/08/30 20:52:48;;;;;;;7.87;2.22;;;;;;;14.96;100.00;97241.53;18236072;32;20058;-58
2023/08/30 21:02:50;;;;;;;6.22;1.83;;;;;;;14.94;100.00;97243.75;18233515;32;20070;-58
2023/08/30 21:12:53;;;;;;;2.42;1.83;;;;;;;14.99;100.00;97248.25;18233692;32;20050;-57
2023/08/30 21:23:12;;;;;;;3.37;1.85;;;;;;;14.96;100.00;97259.78;18234433;32;20383;-57
2023/08/30 21:33:17;;;;;;;2.33;1.65;;;;;;;14.96;100.00;97273.41;18233839;32;20446;-58
2023/08/30 21:43:20;;;;;;;3.00;1.70;;;;;;;15.03;100.00;97284.66;18231844;32;20105;-58
2023/08/30 21:53:22;;;;;;;2.80;1.80;;;;;;;15.25;100.00;97303.75;18233073;32;20084;-58
2023/08/30 22:03:25;;;;;;;2.87;1.77;;;;;;;15.32;100.00;97319.66;18232864;32;20118;-58
2023/08/30 22:13:28;;;;;;;2.28;1.75;;;;;;;15.35;100.00;97323.69;18231109;32;20059;-58
2023/08/30 22:23:30;;;;;;;1.95;1.10;;;;;;;15.30;100.00;97345.59;18230722;32;20157;-58
2023/08/30 22:33:36;;;;;;;3.17;1.45;;;;;;;15.27;100.00;97354.38;18231033;32;20486;-58
2023/08/30 22:43:39;;;;;;;4.95;1.20;;;;;;;15.25;100.00;97352.75;18292943;32;20093;-58
2023/08/30 22:53:41;;;;;;;2.95;1.35;;;;;;;15.21;100.00;97356.37;18279490;32;20382;-58
2023/08/30 23:03:44;;;;;;;2.53;1.27;;;;;;;15.11;100.00;97362.09;18292640;32;20070;-58
2023/08/30 23:13:46;;;;;;;3.87;1.40;;;;;;;15.05;100.00;97366.84;18292484;32;20117;-58
2023/08/30 23:23:49;;;;;;;1.10;0.95;;;;;;;14.96;100.00;97365.97;18298555;32;20409;-58
2023/08/30 23:33:51;;;;;;;2.42;1.48;;;;;;;14.86;100.00;97362.34;18288371;32;20430;-58
2023/08/30 23:43:54;;;;;;;2.10;1.17;;;;;;;14.80;100.00;97377.19;18302374;32;20054;-58
2023/08/30 23:53:56;;;;;;;2.85;1.23;;;;;;;14.82;100.00;97377.66;18301605;32;20066;-58
